Latest Weather Observations for Deniliquin

IDN60801

Issued at 4:04 pm EDT Monday 2 March 2015 (issued every 30 minutes, with the page automatically refreshed every 10 minutes)

About weather observations | Map of weather stations | Latest weather observations for NSW | Other Formats
Station Details ID: 074258 Name: DENILIQUIN AIRPORT AWS Lat: -35.56 Lon: 144.95 Height: 94.0 m
Data from the previous 72 hours. | See also: Recent months at Deniliquin
Date/Time
EDT
Temp
°C
App
Temp
°C
Dew
Point
Rel
Hum
%
Delta-T
°C
Wind Press
QNH
hPa
Press
MSL
hPa
Rain
since 9 am
mm
Dir
 
Spd
km/h
Gust
km/h
Spd
kts
Gust
kts
02/04:00pm 29.3 25.9 6.0 23 12.3 ENE 13 19 7 10 1011.9 1011.6 0.0
02/03:30pm 28.8 26.6 6.2 24 12.0 S 7 13 4 7 1012.9 1012.6 0.0
02/03:00pm 28.8 26.9 7.4 26 11.6 NNE 7 15 4 8 1013.2 1012.9 0.0
02/02:30pm 28.2 25.5 7.4 27 11.2 N 11 17 6 9 1013.4 1013.1 0.0
02/02:00pm 27.8 25.5 7.6 28 10.9 NNW 9 17 5 9 1013.9 1013.6 0.0
02/01:30pm 26.7 23.7 7.7 30 10.2 NE 13 20 7 11 1014.4 1014.1 0.0
02/01:00pm 25.6 22.3 8.1 33 9.4 ENE 15 26 8 14 1014.8 1014.5 0.0
02/12:30pm 24.7 21.4 8.2 35 8.8 E 15 24 8 13 1015.4 1015.1 0.0
02/12:00pm 24.3 20.7 8.3 36 8.6 ESE 17 20 9 11 1016.0 1015.7 0.0
02/11:30am 22.8 19.1 8.1 39 7.8 ENE 17 28 9 15 1016.8 1016.5 0.0
02/11:00am 22.2 18.1 8.0 40 7.5 E 19 28 10 15 1017.0 1016.7 0.0
02/10:30am 21.6 17.7 8.5 43 6.9 E 19 26 10 14 1017.1 1016.8 0.0
02/10:00am 20.0 16.4 8.4 47 6.1 E 17 22 9 12 1017.0 1016.7 0.0
02/09:30am 17.8 14.4 7.5 51 5.2 ESE 15 20 8 11 1017.0 1016.7 0.0
02/09:00am 16.5 12.7 7.4 55 4.6 SE 17 22 9 12 1017.0 1016.7 0.2
02/08:30am 14.5 10.6 7.1 61 3.6 SE 17 24 9 13 1016.8 1016.5 0.2
02/08:00am 13.0 9.6 7.7 70 2.6 SE 15 20 8 11 1016.6 1016.3 0.2
02/07:30am 11.2 8.8 7.1 76 2.0 SSE 9 13 5 7 1016.4 1016.1 0.2
02/07:00am 11.0 7.9 7.3 78 1.8 SE 13 17 7 9 1016.2 1015.9 0.2
02/06:30am 11.0 7.9 7.1 77 1.9 SE 13 17 7 9 1015.9 1015.6 0.2
02/06:00am 11.2 8.1 7.1 76 2.0 SSE 13 15 7 8 1016.0 1015.7 0.2
02/05:30am 11.7 8.6 7.2 74 2.2 S 13 15 7 8 1015.6 1015.2 0.2
02/05:00am 11.7 8.8 6.6 71 2.4 SSE 11 15 6 8 1015.8 1015.5 0.2
02/04:30am 12.7 9.2 7.2 69 2.7 S 15 19 8 10 1015.7 1015.3 0.2
02/04:00am 13.0 9.1 7.0 67 2.9 SSE 17 22 9 12 1015.6 1015.2 0.2
02/03:30am 13.6 9.2 7.2 65 3.1 S 20 24 11 13 1015.7 1015.3 0.2
02/03:00am 14.3 9.9 7.4 63 3.4 S 20 26 11 14 1015.8 1015.5 0.2
02/02:30am 14.5 10.0 7.1 61 3.6 S 20 28 11 15 1016.0 1015.7 0.2
02/02:00am 15.1 10.7 7.2 59 3.9 S 20 28 11 15 1015.9 1015.6 0.2
02/01:30am 13.4 9.8 6.7 64 3.2 SSW 15 19 8 10 1015.8 1015.5 0.2
02/01:00am 14.1 11.1 6.0 58 3.9 SSW 11 17 6 9 1016.1 1015.8 0.2
02/12:30am 15.3 11.6 6.3 55 4.4 S 15 20 8 11 1015.6 1015.2 0.2
02/12:00am 16.7 12.6 6.2 50 5.1 S 17 20 9 11 1015.4 1015.1 0.2
 
Date/Time
EDT
Temp
°C
App
Temp
°C
Dew
Point
Rel
Hum
%
Delta-T
°C
Wind Press
QNH
hPa
Press
MSL
hPa
Rain
since 9 am
mm
Dir
 
Spd
km/h
Gust
km/h
Spd
kts
Gust
kts
01/11:30pm 17.4 12.3 6.0 47 5.6 S 22 28 12 15 1015.4 1015.1 0.2
01/11:00pm 18.1 12.2 5.7 44 6.1 S 26 33 14 18 1015.3 1015.0 0.2
01/10:30pm 18.4 13.2 5.3 42 6.4 S 22 32 12 17 1015.1 1014.8 0.2
01/10:00pm 18.8 13.5 4.9 40 6.7 S 22 30 12 16 1015.1 1014.8 0.2
01/09:30pm 19.4 13.7 4.7 38 7.1 S 24 32 13 17 1014.8 1014.5 0.2
01/09:00pm 20.3 14.1 4.4 35 7.7 S 26 35 14 19 1014.6 1014.3 0.2
01/08:30pm 21.1 14.3 3.3 31 8.5 S 28 41 15 22 1014.3 1014.0 0.2
01/08:00pm 21.6 14.5 3.8 31 8.6 SSE 30 41 16 22 1013.8 1013.5 0.2
01/07:30pm 23.1 16.1 4.1 29 9.3 SSE 30 39 16 21 1013.4 1013.1 0.2
01/07:00pm 24.1 16.6 4.5 28 9.8 S 33 43 18 23 1013.2 1012.9 0.2
01/06:30pm 25.1 18.0 5.3 28 10.1 S 32 44 17 24 1012.7 1012.4 0.2
01/06:00pm 25.6 18.1 4.7 26 10.6 S 33 44 18 24 1012.4 1012.1 0.2
01/05:30pm 26.2 18.8 4.1 24 11.1 SSW 32 54 17 29 1012.1 1011.8 0.2
01/05:29pm 26.1 18.4 3.4 23 11.3 SSW 33 54 18 29 1012.0 1011.7 0.2
01/05:00pm 26.2 18.8 4.1 24 11.1 SSW 32 43 17 23 1011.9 1011.6 0.2
01/04:41pm 27.2 20.0 4.9 24 11.4 S 32 50 17 27 1011.8 1011.5 0.2
01/04:30pm 26.6 19.1 4.4 24 11.2 SSW 33 41 18 22 1011.8 1011.5 0.2
01/04:00pm 26.4 19.0 4.2 24 11.2 SSW 32 50 17 27 1011.8 1011.5 0.2
01/03:31pm 26.6 19.4 5.0 25 11.1 SSW 32 50 17 27 1011.9 1011.6 0.2
01/03:30pm 26.8 20.1 5.7 26 10.9 SSW 30 43 16 23 1011.9 1011.6 0.2
01/03:12pm 26.7 19.9 5.1 25 11.1 SSW 30 48 16 26 1011.9 1011.6 0.2
01/03:00pm 25.9 18.6 4.4 25 10.8 SSW 32 46 17 25 1012.1 1011.8 0.2
01/02:33pm 26.4 19.0 4.2 24 11.2 SSW 32 50 17 27 1011.8 1011.5 0.2
01/02:30pm 26.1 18.8 4.6 25 10.9 SSW 32 46 17 25 1011.9 1011.6 0.2
01/02:21pm 26.2 19.7 4.6 25 10.9 S 28 48 15 26 1011.8 1011.5 0.2
01/02:00pm 25.0 18.5 4.7 27 10.2 SSW 28 41 15 22 1011.8 1011.5 0.2
01/01:45pm 25.1 17.8 5.3 28 10.1 SSW 33 52 18 28 1012.2 1011.9 0.2
01/01:30pm 25.0 17.8 5.2 28 10.1 SSW 32 50 17 27 1012.2 1011.9 0.2
01/01:00pm 24.5 16.9 5.8 30 9.6 SSW 35 48 19 26 1012.3 1012.0 0.2
01/12:50pm 25.1 18.0 5.3 28 10.1 SSW 32 54 17 29 1012.2 1011.9 0.2
01/12:30pm 23.8 16.8 6.1 32 9.1 SSW 32 44 17 24 1012.4 1012.1 0.2
01/12:00pm 22.9 15.8 5.3 32 8.8 SW 32 44 17 24 1012.3 1012.0 0.2
01/11:30am 22.6 15.8 6.8 36 8.1 SSW 32 41 17 22 1012.3 1012.0 0.0
01/11:00am 21.5 16.1 8.1 42 7.0 SSW 26 35 14 19 1012.1 1011.8 0.0
01/10:30am 20.9 15.1 7.9 43 6.8 SSW 28 35 15 19 1011.7 1011.3 0.0
01/10:00am 19.9 15.2 10.6 55 5.1 SW 26 35 14 19 1011.3 1010.9 0.0
01/09:30am 18.6 13.0 11.4 63 4.0 SSW 32 39 17 21 1010.8 1010.4 0.0
01/09:00am 18.0 13.7 12.0 68 3.3 SW 26 33 14 18 1010.4 1010.0 0.2
01/08:30am 16.8 12.6 12.3 75 2.5 SSW 26 35 14 19 1010.0 1009.6 0.2
01/08:00am 15.9 12.3 13.0 83 1.6 SW 24 32 13 17 1009.2 1008.8 0.2
01/07:30am 15.6 12.1 13.3 86 1.3 SW 24 32 13 17 1008.7 1008.2 0.2
01/07:00am 16.3 12.3 14.1 87 1.3 SW 28 37 15 20 1008.2 1007.7 0.2
01/06:30am 17.0 12.3 14.8 87 1.3 SW 33 43 18 23 1007.6 1007.1 0.0
01/06:00am 18.8 14.7 16.0 84 1.7 SW 32 43 17 23 1006.5 1006.0 0.0
01/05:30am 20.0 17.2 15.4 75 2.7 SW 24 32 13 17 1005.8 1005.3 0.0
01/05:00am 20.1 17.2 16.1 78 2.4 SW 26 33 14 18 1005.2 1004.7 0.0
01/04:30am 20.8 18.8 17.4 81 2.1 WSW 24 30 13 16 1005.5 1005.0 0.0
01/04:00am 21.4 19.5 16.6 74 2.9 WSW 22 28 12 15 1005.2 1004.7 0.0
01/03:30am 21.6 21.4 16.6 73 3.0 SW 13 19 7 10 1003.9 1003.5 0.0
01/03:00am 22.7 21.6 15.3 63 4.4 WSW 15 19 8 10 1005.1 1004.6 0.0
01/02:30am 22.9 23.3 15.2 62 4.6 SE 7 9 4 5 1004.5 1004.0 0.0
01/02:00am 23.6 21.9 14.6 57 5.4 SSE 17 22 9 12 1004.5 1004.0 0.0
01/01:30am 23.9 22.0 14.3 55 5.7 S 17 22 9 12 1005.0 1004.5 0.0
01/01:00am 24.2 22.3 14.3 54 5.9 SSE 17 20 9 11 1004.7 1004.2 0.0
01/12:30am 24.7 22.3 13.9 51 6.4 SSW 19 22 10 12 1005.4 1004.9 0.0
01/12:00am 24.6 21.3 14.1 52 6.2 S 24 33 13 18 1005.0 1004.5 0.0
 
Date/Time
EDT
Temp
°C
App
Temp
°C
Dew
Point
Rel
Hum
%
Delta-T
°C
Wind Press
QNH
hPa
Press
MSL
hPa
Rain
since 9 am
mm
Dir
 
Spd
km/h
Gust
km/h
Spd
kts
Gust
kts
28/11:30pm 24.9 19.6 14.1 51 6.4 SSW 35 50 19 27 1005.0 1004.5 0.0
28/11:20pm 24.9 19.7 14.4 52 6.3 SSW 35 54 19 29 1005.0 1004.5 0.0
28/11:00pm 24.9 18.0 14.4 52 6.3 SSW 44 59 24 32 1004.9 1004.4 0.0
28/10:30pm 26.3 18.6 13.4 45 7.6 SW 46 70 25 38 1004.0 1003.6 0.0
28/10:22pm 29.2 24.2 10.8 32 10.5 WNW 28 69 15 37 1003.4 1003.0 0.0
28/10:21pm 29.3 24.9 10.4 31 10.8 NW 24 54 13 29 1003.5 1003.1 0.0
28/10:19pm 30.4 26.4 8.2 25 12.3 NNW 19 44 10 24 1003.6 1003.2 0.0
28/10:00pm 30.6 26.7 7.1 23 12.8 N 17 19 9 10 1001.7 1001.3 0.0
28/09:30pm 31.0 27.2 7.5 23 12.9 NNE 17 20 9 11 1001.6 1001.2 0.0
28/09:00pm 31.0 28.0 7.5 23 12.9 NNE 13 17 7 9 1001.8 1001.4 0.0
28/08:30pm 31.3 28.5 7.1 22 13.2 NNE 11 13 6 7 1001.7 1001.3 0.0
28/08:00pm 32.7 29.5 6.8 20 14.2 N 13 15 7 8 1001.7 1001.3 0.0
28/07:30pm 33.8 30.1 6.2 18 15.0 N 15 19 8 10 1001.7 1001.3 0.0
28/07:00pm 35.2 30.4 5.6 16 16.1 NNW 20 28 11 15 1001.8 1001.4 0.0
28/06:30pm 36.0 31.3 6.2 16 16.4 NNW 20 33 11 18 1001.8 1001.4 0.0
28/06:00pm 35.6 30.9 5.0 15 16.6 NNW 19 32 10 17 1002.0 1001.6 0.0
28/05:30pm 36.6 31.8 4.8 14 17.2 NW 19 30 10 16 1002.1 1001.7 0.0
28/05:00pm 35.5 31.1 4.9 15 16.5 NW 17 30 9 16 1002.5 1002.1 0.0
28/04:30pm 36.0 32.3 4.3 14 16.9 NNW 13 22 7 12 1002.8 1002.4 0.0
28/04:00pm 36.0 31.9 4.3 14 17.0 NW 15 22 8 12 1003.2 1002.8 0.0
28/03:30pm 34.8 32.0 3.4 14 16.4 NNE 7 11 4 6 1003.6 1003.2 0.0
28/03:00pm 34.9 32.3 4.4 15 16.3 NE 7 13 4 7 1003.9 1003.5 0.0
28/02:30pm 34.5 30.5 3.1 14 16.3 NE 13 24 7 13 1004.3 1003.9 0.0
28/02:00pm 33.2 29.3 1.1 13 16.1 NNE 11 20 6 11 1004.9 1004.4 0.0
28/01:30pm 32.7 29.5 0.7 13 15.8 ENE 7 17 4 9 1005.5 1005.0 0.0
28/01:00pm 32.4 28.4 0.5 13 15.7 NE 11 20 6 11 1006.0 1005.5 0.0
28/12:30pm 32.1 28.4 0.2 13 15.6 NNE 9 15 5 8 1006.8 1006.3 0.0
28/12:00pm 31.3 27.7 0.6 14 15.0 NW 9 15 5 8 1007.6 1007.1 0.0
28/11:30am 30.9 26.8 2.2 16 14.4 N 13 20 7 11 1007.9 1007.4 0.0
28/11:00am 28.9 25.3 5.1 22 12.4 N 13 17 7 9 1008.2 1007.7 0.0
28/10:30am 27.7 24.3 5.9 25 11.4 N 13 19 7 10 1008.1 1007.6 0.0
28/10:00am 27.1 23.7 6.0 26 11.0 NNE 13 19 7 10 1007.8 1007.3 0.0
28/09:30am 26.7 23.5 6.7 28 10.6 NE 13 17 7 9 1007.6 1007.1 0.0
28/09:00am 24.6 22.1 8.1 35 8.8 ENE 11 13 6 7 1007.7 1007.2 0.0
28/08:30am 23.2 21.2 8.5 39 7.8 E 9 11 5 6 1007.8 1007.3 0.0
28/08:00am 21.7 20.8 9.3 45 6.7 E 4 6 2 3 1007.6 1007.1 0.0
28/07:30am 19.3 17.5 8.0 48 5.8 E 7 9 4 5 1007.2 1006.7 0.0
28/07:00am 20.4 18.3 8.1 45 6.4 ESE 9 11 5 6 1006.9 1006.4 0.0
28/06:30am 20.8 19.0 8.1 44 6.6 ESE 7 9 4 5 1006.7 1006.2 0.0
28/06:00am 20.9 18.4 8.2 44 6.7 ESE 11 13 6 7 1006.5 1006.0 0.0
28/05:30am 20.7 18.0 7.3 42 6.9 ESE 11 13 6 7 1006.4 1005.9 0.0
28/05:00am 21.0 19.0 6.9 40 7.2 ESE 7 9 4 5 1006.6 1006.1 0.0
28/04:30am 21.6 19.8 7.1 39 7.5 E 6 7 3 4 1006.8 1006.3 0.0
28/04:00am 21.7 19.3 6.8 38 7.7 ESE 9 11 5 6 1006.7 1006.2 0.0
28/03:30am 22.0 19.4 6.3 36 8.0 ESE 9 13 5 7 1006.9 1006.4 0.0
28/03:00am 22.0 19.5 5.0 33 8.5 SE 7 11 4 6 1007.3 1006.8 0.0
28/02:30am 22.1 19.8 4.6 32 8.6 SSW 6 7 3 4 1007.5 1007.0 0.0
28/02:00am 22.8 19.1 4.3 30 9.1 SE 13 17 7 9 1007.4 1006.9 0.0
28/01:30am 22.0 20.9 5.0 33 8.4 CALM 0 0 0 0 1007.9 1007.4 0.0
28/01:00am 21.9 20.6 5.8 35 8.1 ESE 2 6 1 3 1008.1 1007.6 0.0
28/12:30am 21.9 20.9 5.8 35 8.1 CALM 0 0 0 0 1008.0 1007.5 0.0
28/12:00am 21.8 19.5 5.7 35 8.1 ESE 7 11 4 6 1008.0 1007.5 0.0
 
Date/Time
EDT
Temp
°C
App
Temp
°C
Dew
Point
Rel
Hum
%
Delta-T
°C
Wind Press
QNH
hPa
Press
MSL
hPa
Rain
since 9 am
mm
Dir
 
Spd
km/h
Gust
km/h
Spd
kts
Gust
kts
27/11:30pm 22.1 19.8 4.6 32 8.6 SE 6 7 3 4 1008.0 1007.5 0.0
27/11:00pm 22.8 21.1 1.8 25 9.9 CALM 0 0 0 0 1008.2 1007.7 0.0
27/10:30pm 22.9 20.4 1.3 24 10.1 SE 4 6 2 3 1008.2 1007.7 0.0
27/10:00pm 23.1 19.6 1.4 24 10.2 S 9 11 5 6 1008.1 1007.6 0.0
27/09:30pm 22.9 19.9 0.7 23 10.2 S 6 9 3 5 1007.9 1007.4 0.0
27/09:00pm 24.5 20.3 -0.6 19 11.5 SW 11 13 6 7 1007.6 1007.1 0.0
27/08:30pm 26.1 23.0 0.0 18 12.2 SW 6 7 3 4 1007.4 1006.9 0.0
27/08:00pm 27.7 23.9 -0.4 16 13.2 SSW 9 11 5 6 1007.1 1006.6 0.0
27/07:30pm 29.7 24.6 -1.6 13 14.6 SSW 15 20 8 11 1006.9 1006.4 0.0
27/07:00pm 30.6 24.7 -2.0 12 15.2 SSW 19 24 10 13 1006.8 1006.3 0.0
27/06:30pm 30.8 26.2 -0.8 13 15.0 SW 13 20 7 11 1006.5 1006.0 0.0
27/06:00pm 31.5 25.7 -1.3 12 15.6 SW 19 26 10 14 1006.6 1006.1 0.0
27/05:30pm 32.2 26.5 -0.8 12 15.8 SSW 19 26 10 14 1006.6 1006.1 0.0
27/05:00pm 32.0 26.3 -0.9 12 15.8 SSW 19 30 10 16 1006.8 1006.3 0.0
27/04:30pm 32.0 27.0 -0.9 12 15.7 SSW 15 24 8 13 1006.9 1006.4 0.0

Other Formats:

Comma delimited format used in spreadsheet applications
http://www.bom.gov.au/fwo/IDN60801/IDN60801.95869.axf

JavaScript Object Notation format (JSON) in row-major order
http://www.bom.gov.au/fwo/IDN60801/IDN60801.95869.json